sensor_id;sensor_type;location;lat;lon;timestamp;P1;durP1;ratioP1;P2;durP2;ratioP2
52868;SDS011;39100;53.480;6.158;2022-07-29T00:02:03;0.10;;;0.08;;
52868;SDS011;39100;53.480;6.158;2022-07-29T00:04:29;0.52;;;0.52;;
52868;SDS011;39100;53.480;6.158;2022-07-29T00:06:54;0.98;;;0.20;;
52868;SDS011;39100;53.480;6.158;2022-07-29T00:09:20;0.70;;;0.10;;
52868;SDS011;39100;53.480;6.158;2022-07-29T00:11:46;0.05;;;0.05;;
52868;SDS011;39100;53.480;6.158;2022-07-29T00:14:11;0.55;;;0.10;;
52868;SDS011;39100;53.480;6.158;2022-07-29T00:16:37;0.20;;;0.20;;
52868;SDS011;39100;53.480;6.158;2022-07-29T00:19:03;0.10;;;0.10;;
52868;SDS011;39100;53.480;6.158;2022-07-29T00:21:29;0.43;;;0.00;;
52868;SDS011;39100;53.480;6.158;2022-07-29T00:23:55;0.45;;;0.03;;
52868;SDS011;39100;53.480;6.158;2022-07-29T00:26:20;0.10;;;0.10;;
52868;SDS011;39100;53.480;6.158;2022-07-29T00:28:46;1.38;;;0.03;;
52868;SDS011;39100;53.480;6.158;2022-07-29T00:31:12;0.10;;;0.10;;
52868;SDS011;39100;53.480;6.158;2022-07-29T00:33:37;0.30;;;0.10;;
52868;SDS011;39100;53.480;6.158;2022-07-29T00:36:03;0.10;;;0.00;;
52868;SDS011;39100;53.480;6.158;2022-07-29T00:38:29;0.00;;;0.00;;
52868;SDS011;39100;53.480;6.158;2022-07-29T00:40:54;1.45;;;0.10;;
52868;SDS011;39100;53.480;6.158;2022-07-29T00:43:20;0.17;;;0.10;;
52868;SDS011;39100;53.480;6.158;2022-07-29T00:45:45;1.55;;;0.10;;
52868;SDS011;39100;53.480;6.158;2022-07-29T00:48:11;2.17;;;0.10;;
52868;SDS011;39100;53.480;6.158;2022-07-29T00:50:37;0.50;;;0.10;;
52868;SDS011;39100;53.480;6.158;2022-07-29T00:53:03;0.20;;;0.20;;
52868;SDS011;39100;53.480;6.158;2022-07-29T00:55:30;0.10;;;0.10;;
52868;SDS011;39100;53.480;6.158;2022-07-29T00:57:56;0.40;;;0.20;;
52868;SDS011;39100;53.480;6.158;2022-07-29T01:00:24;1.00;;;0.40;;
52868;SDS011;39100;53.480;6.158;2022-07-29T01:02:51;0.10;;;0.10;;
52868;SDS011;39100;53.480;6.158;2022-07-29T01:05:18;2.30;;;0.08;;
52868;SDS011;39100;53.480;6.158;2022-07-29T01:07:45;0.30;;;0.10;;
52868;SDS011;39100;53.480;6.158;2022-07-29T01:10:13;0.25;;;0.10;;
52868;SDS011;39100;53.480;6.158;2022-07-29T01:12:40;0.28;;;0.22;;
52868;SDS011;39100;53.480;6.158;2022-07-29T01:15:08;1.75;;;0.10;;
52868;SDS011;39100;53.480;6.158;2022-07-29T01:17:50;0.60;;;0.20;;
52868;SDS011;39100;53.480;6.158;2022-07-29T01:31:22;1.75;;;0.25;;
52868;SDS011;39100;53.480;6.158;2022-07-29T01:33:56;1.23;;;0.10;;
52868;SDS011;39100;53.480;6.158;2022-07-29T01:36:31;0.80;;;0.30;;
52868;SDS011;39100;53.480;6.158;2022-07-29T01:39:08;0.40;;;0.25;;
52868;SDS011;39100;53.480;6.158;2022-07-29T01:42:34;0.22;;;0.10;;
52868;SDS011;39100;53.480;6.158;2022-07-29T01:44:52;0.45;;;0.20;;
52868;SDS011;39100;53.480;6.158;2022-07-29T01:48:02;1.98;;;0.35;;
52868;SDS011;39100;53.480;6.158;2022-07-29T01:50:19;1.17;;;0.20;;
52868;SDS011;39100;53.480;6.158;2022-07-29T01:52:56;0.85;;;0.20;;
52868;SDS011;39100;53.480;6.158;2022-07-29T01:55:28;0.22;;;0.10;;
52868;SDS011;39100;53.480;6.158;2022-07-29T01:57:57;0.43;;;0.20;;
52868;SDS011;39100;53.480;6.158;2022-07-29T02:00:24;0.30;;;0.20;;
52868;SDS011;39100;53.480;6.158;2022-07-29T02:02:51;0.20;;;0.10;;
52868;SDS011;39100;53.480;6.158;2022-07-29T02:05:20;0.40;;;0.10;;
52868;SDS011;39100;53.480;6.158;2022-07-29T02:07:48;1.27;;;0.20;;
52868;SDS011;39100;53.480;6.158;2022-07-29T02:10:16;0.25;;;0.20;;
52868;SDS011;39100;53.480;6.158;2022-07-29T02:12:46;0.73;;;0.10;;
52868;SDS011;39100;53.480;6.158;2022-07-29T02:15:13;1.27;;;0.40;;
52868;SDS011;39100;53.480;6.158;2022-07-29T02:17:52;2.20;;;0.52;;
52868;SDS011;39100;53.480;6.158;2022-07-29T02:20:22;0.40;;;0.40;;
52868;SDS011;39100;53.480;6.158;2022-07-29T02:22:50;3.50;;;1.23;;
52868;SDS011;39100;53.480;6.158;2022-07-29T02:25:18;3.30;;;0.38;;
52868;SDS011;39100;53.480;6.158;2022-07-29T02:27:45;1.65;;;0.28;;
52868;SDS011;39100;53.480;6.158;2022-07-29T02:30:13;0.40;;;0.20;;
52868;SDS011;39100;53.480;6.158;2022-07-29T02:32:40;0.43;;;0.22;;
52868;SDS011;39100;53.480;6.158;2022-07-29T02:35:08;0.52;;;0.30;;
52868;SDS011;39100;53.480;6.158;2022-07-29T02:37:35;0.43;;;0.20;;
52868;SDS011;39100;53.480;6.158;2022-07-29T02:40:02;0.35;;;0.20;;
52868;SDS011;39100;53.480;6.158;2022-07-29T02:42:28;0.82;;;0.25;;
52868;SDS011;39100;53.480;6.158;2022-07-29T02:44:56;1.88;;;0.38;;
52868;SDS011;39100;53.480;6.158;2022-07-29T02:47:23;0.32;;;0.20;;
52868;SDS011;39100;53.480;6.158;2022-07-29T03:00:08;2.17;;;0.22;;
52868;SDS011;39100;53.480;6.158;2022-07-29T03:02:37;3.47;;;0.45;;
52868;SDS011;39100;53.480;6.158;2022-07-29T03:05:06;0.47;;;0.10;;
52868;SDS011;39100;53.480;6.158;2022-07-29T03:07:35;0.40;;;0.20;;
52868;SDS011;39100;53.480;6.158;2022-07-29T03:10:03;0.45;;;0.17;;
52868;SDS011;39100;53.480;6.158;2022-07-29T03:12:29;0.45;;;0.30;;
52868;SDS011;39100;53.480;6.158;2022-07-29T03:14:56;0.20;;;0.10;;
52868;SDS011;39100;53.480;6.158;2022-07-29T03:17:23;0.20;;;0.10;;
52868;SDS011;39100;53.480;6.158;2022-07-29T03:19:49;1.13;;;0.10;;
52868;SDS011;39100;53.480;6.158;2022-07-29T03:22:15;1.25;;;0.25;;
52868;SDS011;39100;53.480;6.158;2022-07-29T03:24:41;0.40;;;0.20;;
52868;SDS011;39100;53.480;6.158;2022-07-29T03:27:06;0.60;;;0.60;;
52868;SDS011;39100;53.480;6.158;2022-07-29T03:29:32;0.38;;;0.17;;
52868;SDS011;39100;53.480;6.158;2022-07-29T03:31:57;0.40;;;0.10;;
52868;SDS011;39100;53.480;6.158;2022-07-29T03:34:23;0.50;;;0.20;;
52868;SDS011;39100;53.480;6.158;2022-07-29T03:36:49;1.35;;;0.13;;
52868;SDS011;39100;53.480;6.158;2022-07-29T03:39:16;1.02;;;0.20;;
52868;SDS011;39100;53.480;6.158;2022-07-29T03:41:45;0.70;;;0.10;;
52868;SDS011;39100;53.480;6.158;2022-07-29T03:44:15;0.20;;;0.10;;
52868;SDS011;39100;53.480;6.158;2022-07-29T03:46:43;1.15;;;0.73;;
52868;SDS011;39100;53.480;6.158;2022-07-29T03:49:10;1.00;;;0.20;;
52868;SDS011;39100;53.480;6.158;2022-07-29T03:51:36;0.82;;;0.38;;
52868;SDS011;39100;53.480;6.158;2022-07-29T03:54:02;0.25;;;0.10;;
52868;SDS011;39100;53.480;6.158;2022-07-29T03:56:29;0.63;;;0.10;;
52868;SDS011;39100;53.480;6.158;2022-07-29T03:58:57;0.00;;;0.00;;
52868;SDS011;39100;53.480;6.158;2022-07-29T04:01:23;0.40;;;0.10;;
52868;SDS011;39100;53.480;6.158;2022-07-29T04:03:51;0.25;;;0.10;;
52868;SDS011;39100;53.480;6.158;2022-07-29T04:06:17;0.73;;;0.10;;
52868;SDS011;39100;53.480;6.158;2022-07-29T04:08:42;0.40;;;0.10;;
52868;SDS011;39100;53.480;6.158;2022-07-29T04:11:08;0.30;;;0.25;;
52868;SDS011;39100;53.480;6.158;2022-07-29T04:13:34;0.88;;;0.10;;
52868;SDS011;39100;53.480;6.158;2022-07-29T04:15:59;0.65;;;0.17;;
52868;SDS011;39100;53.480;6.158;2022-07-29T04:18:25;0.40;;;0.20;;
52868;SDS011;39100;53.480;6.158;2022-07-29T04:20:50;0.17;;;0.10;;
52868;SDS011;39100;53.480;6.158;2022-07-29T04:23:16;0.17;;;0.17;;
52868;SDS011;39100;53.480;6.158;2022-07-29T04:25:42;0.30;;;0.20;;
52868;SDS011;39100;53.480;6.158;2022-07-29T04:28:08;2.03;;;0.20;;
52868;SDS011;39100;53.480;6.158;2022-07-29T04:30:35;0.17;;;0.10;;
52868;SDS011;39100;53.480;6.158;2022-07-29T04:33:02;2.50;;;0.22;;
52868;SDS011;39100;53.480;6.158;2022-07-29T04:35:29;0.25;;;0.20;;
52868;SDS011;39100;53.480;6.158;2022-07-29T04:37:55;1.45;;;0.32;;
52868;SDS011;39100;53.480;6.158;2022-07-29T04:40:21;0.03;;;0.03;;
52868;SDS011;39100;53.480;6.158;2022-07-29T04:42:47;1.52;;;0.20;;
52868;SDS011;39100;53.480;6.158;2022-07-29T04:45:12;0.43;;;0.40;;
52868;SDS011;39100;53.480;6.158;2022-07-29T04:47:38;0.47;;;0.20;;
52868;SDS011;39100;53.480;6.158;2022-07-29T04:50:04;0.43;;;0.10;;
52868;SDS011;39100;53.480;6.158;2022-07-29T04:52:31;1.15;;;0.40;;
52868;SDS011;39100;53.480;6.158;2022-07-29T04:54:57;2.10;;;0.32;;
52868;SDS011;39100;53.480;6.158;2022-07-29T04:57:23;0.30;;;0.10;;
52868;SDS011;39100;53.480;6.158;2022-07-29T04:59:48;1.10;;;0.20;;
52868;SDS011;39100;53.480;6.158;2022-07-29T05:02:14;0.95;;;0.20;;
52868;SDS011;39100;53.480;6.158;2022-07-29T05:04:40;1.52;;;0.20;;
52868;SDS011;39100;53.480;6.158;2022-07-29T05:07:05;1.55;;;0.10;;
52868;SDS011;39100;53.480;6.158;2022-07-29T05:09:31;1.98;;;0.32;;
52868;SDS011;39100;53.480;6.158;2022-07-29T05:11:57;0.40;;;0.20;;
52868;SDS011;39100;53.480;6.158;2022-07-29T05:14:23;1.85;;;0.22;;
52868;SDS011;39100;53.480;6.158;2022-07-29T05:16:48;2.50;;;0.25;;
52868;SDS011;39100;53.480;6.158;2022-07-29T05:19:16;0.20;;;0.10;;
52868;SDS011;39100;53.480;6.158;2022-07-29T05:21:42;2.15;;;0.70;;
52868;SDS011;39100;53.480;6.158;2022-07-29T05:24:09;0.25;;;0.15;;
52868;SDS011;39100;53.480;6.158;2022-07-29T05:26:34;0.85;;;0.20;;
52868;SDS011;39100;53.480;6.158;2022-07-29T05:29:00;0.25;;;0.20;;
52868;SDS011;39100;53.480;6.158;2022-07-29T05:31:25;1.45;;;0.20;;
52868;SDS011;39100;53.480;6.158;2022-07-29T05:33:51;0.73;;;0.20;;
52868;SDS011;39100;53.480;6.158;2022-07-29T05:36:17;1.38;;;0.17;;
52868;SDS011;39100;53.480;6.158;2022-07-29T05:38:43;0.30;;;0.22;;
52868;SDS011;39100;53.480;6.158;2022-07-29T05:41:08;1.00;;;0.35;;
52868;SDS011;39100;53.480;6.158;2022-07-29T05:43:34;1.83;;;0.20;;
52868;SDS011;39100;53.480;6.158;2022-07-29T05:45:59;1.30;;;0.30;;
52868;SDS011;39100;53.480;6.158;2022-07-29T05:48:25;0.70;;;0.28;;
52868;SDS011;39100;53.480;6.158;2022-07-29T05:50:51;0.85;;;0.55;;
52868;SDS011;39100;53.480;6.158;2022-07-29T05:53:16;2.13;;;0.30;;
52868;SDS011;39100;53.480;6.158;2022-07-29T05:55:42;1.20;;;0.20;;
52868;SDS011;39100;53.480;6.158;2022-07-29T05:58:07;0.43;;;0.20;;
52868;SDS011;39100;53.480;6.158;2022-07-29T06:00:33;0.60;;;0.30;;
52868;SDS011;39100;53.480;6.158;2022-07-29T06:02:59;1.60;;;0.30;;
52868;SDS011;39100;53.480;6.158;2022-07-29T06:05:25;1.63;;;0.40;;
52868;SDS011;39100;53.480;6.158;2022-07-29T06:07:50;1.33;;;0.30;;
52868;SDS011;39100;53.480;6.158;2022-07-29T06:10:16;0.80;;;0.32;;
52868;SDS011;39100;53.480;6.158;2022-07-29T06:12:41;0.73;;;0.38;;
52868;SDS011;39100;53.480;6.158;2022-07-29T06:15:07;1.98;;;0.57;;
52868;SDS011;39100;53.480;6.158;2022-07-29T06:17:33;2.55;;;0.20;;
52868;SDS011;39100;53.480;6.158;2022-07-29T06:19:59;0.70;;;0.40;;
52868;SDS011;39100;53.480;6.158;2022-07-29T06:22:25;1.02;;;0.45;;
52868;SDS011;39100;53.480;6.158;2022-07-29T06:24:50;1.38;;;0.50;;
52868;SDS011;39100;53.480;6.158;2022-07-29T06:27:16;1.20;;;0.30;;
52868;SDS011;39100;53.480;6.158;2022-07-29T06:29:41;1.15;;;0.30;;
52868;SDS011;39100;53.480;6.158;2022-07-29T06:32:07;0.55;;;0.20;;
52868;SDS011;39100;53.480;6.158;2022-07-29T06:34:34;1.13;;;0.25;;
52868;SDS011;39100;53.480;6.158;2022-07-29T06:37:00;0.52;;;0.30;;
52868;SDS011;39100;53.480;6.158;2022-07-29T06:39:30;3.03;;;0.45;;
52868;SDS011;39100;53.480;6.158;2022-07-29T06:41:55;2.80;;;0.30;;
52868;SDS011;39100;53.480;6.158;2022-07-29T06:44:21;0.73;;;0.32;;
52868;SDS011;39100;53.480;6.158;2022-07-29T06:46:46;1.30;;;0.20;;
52868;SDS011;39100;53.480;6.158;2022-07-29T06:49:14;1.55;;;0.50;;
52868;SDS011;39100;53.480;6.158;2022-07-29T06:51:40;1.60;;;0.30;;
52868;SDS011;39100;53.480;6.158;2022-07-29T06:54:06;2.08;;;0.20;;
52868;SDS011;39100;53.480;6.158;2022-07-29T06:56:32;0.65;;;0.22;;
52868;SDS011;39100;53.480;6.158;2022-07-29T06:59:02;1.90;;;0.68;;
52868;SDS011;39100;53.480;6.158;2022-07-29T07:01:27;0.50;;;0.30;;
52868;SDS011;39100;53.480;6.158;2022-07-29T07:03:53;0.63;;;0.10;;
52868;SDS011;39100;53.480;6.158;2022-07-29T07:06:19;0.95;;;0.30;;
52868;SDS011;39100;53.480;6.158;2022-07-29T07:08:44;0.82;;;0.45;;
52868;SDS011;39100;53.480;6.158;2022-07-29T07:11:10;0.60;;;0.20;;
52868;SDS011;39100;53.480;6.158;2022-07-29T07:13:36;0.95;;;0.43;;
52868;SDS011;39100;53.480;6.158;2022-07-29T07:16:01;1.88;;;0.30;;
52868;SDS011;39100;53.480;6.158;2022-07-29T07:18:27;0.60;;;0.30;;
52868;SDS011;39100;53.480;6.158;2022-07-29T07:20:53;2.05;;;0.30;;
52868;SDS011;39100;53.480;6.158;2022-07-29T07:23:19;0.63;;;0.28;;
52868;SDS011;39100;53.480;6.158;2022-07-29T07:25:44;1.60;;;0.40;;
52868;SDS011;39100;53.480;6.158;2022-07-29T07:28:10;0.60;;;0.20;;
52868;SDS011;39100;53.480;6.158;2022-07-29T07:30:35;1.55;;;0.43;;
52868;SDS011;39100;53.480;6.158;2022-07-29T07:33:01;2.25;;;0.65;;
52868;SDS011;39100;53.480;6.158;2022-07-29T07:35:27;0.60;;;0.32;;
52868;SDS011;39100;53.480;6.158;2022-07-29T07:37:54;2.08;;;0.43;;
52868;SDS011;39100;53.480;6.158;2022-07-29T07:40:20;0.82;;;0.75;;
52868;SDS011;39100;53.480;6.158;2022-07-29T07:42:46;4.97;;;0.70;;
52868;SDS011;39100;53.480;6.158;2022-07-29T07:45:11;2.67;;;0.38;;
52868;SDS011;39100;53.480;6.158;2022-07-29T07:47:38;0.68;;;0.68;;
52868;SDS011;39100;53.480;6.158;2022-07-29T07:50:05;1.15;;;0.30;;
52868;SDS011;39100;53.480;6.158;2022-07-29T07:52:32;2.53;;;0.28;;
52868;SDS011;39100;53.480;6.158;2022-07-29T07:54:57;2.08;;;0.30;;
52868;SDS011;39100;53.480;6.158;2022-07-29T07:57:23;0.82;;;0.40;;
52868;SDS011;39100;53.480;6.158;2022-07-29T07:59:49;1.15;;;0.30;;
52868;SDS011;39100;53.480;6.158;2022-07-29T08:02:14;0.52;;;0.40;;
52868;SDS011;39100;53.480;6.158;2022-07-29T08:04:40;0.80;;;0.30;;
52868;SDS011;39100;53.480;6.158;2022-07-29T08:07:06;1.10;;;0.10;;
52868;SDS011;39100;53.480;6.158;2022-07-29T08:09:33;0.93;;;0.40;;
52868;SDS011;39100;53.480;6.158;2022-07-29T08:11:59;3.65;;;0.50;;
52868;SDS011;39100;53.480;6.158;2022-07-29T08:14:27;1.27;;;0.88;;
52868;SDS011;39100;53.480;6.158;2022-07-29T08:16:52;1.35;;;0.60;;
52868;SDS011;39100;53.480;6.158;2022-07-29T08:19:18;3.33;;;1.17;;
52868;SDS011;39100;53.480;6.158;2022-07-29T08:21:44;1.73;;;0.93;;
52868;SDS011;39100;53.480;6.158;2022-07-29T08:24:10;3.08;;;0.60;;
52868;SDS011;39100;53.480;6.158;2022-07-29T08:26:54;1.73;;;0.70;;
52868;SDS011;39100;53.480;6.158;2022-07-29T08:29:20;1.65;;;0.38;;
52868;SDS011;39100;53.480;6.158;2022-07-29T08:31:45;0.57;;;0.40;;
52868;SDS011;39100;53.480;6.158;2022-07-29T08:34:11;0.85;;;0.32;;
52868;SDS011;39100;53.480;6.158;2022-07-29T08:36:37;1.13;;;0.30;;
52868;SDS011;39100;53.480;6.158;2022-07-29T08:39:03;0.80;;;0.35;;
52868;SDS011;39100;53.480;6.158;2022-07-29T08:41:29;1.55;;;0.38;;
52868;SDS011;39100;53.480;6.158;2022-07-29T08:43:56;2.50;;;0.68;;
52868;SDS011;39100;53.480;6.158;2022-07-29T08:46:22;1.27;;;0.40;;
52868;SDS011;39100;53.480;6.158;2022-07-29T08:48:48;1.65;;;0.43;;
52868;SDS011;39100;53.480;6.158;2022-07-29T08:51:15;0.60;;;0.30;;
52868;SDS011;39100;53.480;6.158;2022-07-29T08:53:44;1.08;;;0.40;;
52868;SDS011;39100;53.480;6.158;2022-07-29T08:56:13;2.13;;;0.50;;
52868;SDS011;39100;53.480;6.158;2022-07-29T08:58:41;1.50;;;0.60;;
52868;SDS011;39100;53.480;6.158;2022-07-29T09:01:07;0.85;;;0.50;;
52868;SDS011;39100;53.480;6.158;2022-07-29T09:03:35;2.15;;;0.47;;
52868;SDS011;39100;53.480;6.158;2022-07-29T09:06:02;2.22;;;0.70;;
52868;SDS011;39100;53.480;6.158;2022-07-29T09:08:30;1.55;;;0.30;;
52868;SDS011;39100;53.480;6.158;2022-07-29T09:10:56;0.65;;;0.30;;
52868;SDS011;39100;53.480;6.158;2022-07-29T09:13:22;2.28;;;0.52;;
52868;SDS011;39100;53.480;6.158;2022-07-29T09:15:48;1.20;;;0.32;;
52868;SDS011;39100;53.480;6.158;2022-07-29T09:21:00;2.58;;;0.75;;
52868;SDS011;39100;53.480;6.158;2022-07-29T09:24:00;1.88;;;0.55;;
52868;SDS011;39100;53.480;6.158;2022-07-29T09:26:31;0.98;;;0.40;;
52868;SDS011;39100;53.480;6.158;2022-07-29T09:28:58;0.60;;;0.32;;
52868;SDS011;39100;53.480;6.158;2022-07-29T09:31:35;1.55;;;1.20;;
52868;SDS011;39100;53.480;6.158;2022-07-29T09:34:03;0.22;;;0.22;;
52868;SDS011;39100;53.480;6.158;2022-07-29T09:36:30;0.70;;;0.30;;
52868;SDS011;39100;53.480;6.158;2022-07-29T09:38:59;1.45;;;0.40;;
52868;SDS011;39100;53.480;6.158;2022-07-29T09:41:26;1.02;;;0.57;;
52868;SDS011;39100;53.480;6.158;2022-07-29T09:43:58;1.13;;;0.50;;
52868;SDS011;39100;53.480;6.158;2022-07-29T09:46:25;1.13;;;0.40;;
52868;SDS011;39100;53.480;6.158;2022-07-29T09:49:06;2.75;;;0.50;;
52868;SDS011;39100;53.480;6.158;2022-07-29T09:51:33;2.00;;;0.73;;
52868;SDS011;39100;53.480;6.158;2022-07-29T09:53:58;0.93;;;0.40;;
52868;SDS011;39100;53.480;6.158;2022-07-29T09:56:40;2.30;;;0.50;;
52868;SDS011;39100;53.480;6.158;2022-07-29T09:59:06;0.75;;;0.30;;
52868;SDS011;39100;53.480;6.158;2022-07-29T10:01:33;0.88;;;0.43;;
52868;SDS011;39100;53.480;6.158;2022-07-29T10:04:01;1.05;;;0.30;;
52868;SDS011;39100;53.480;6.158;2022-07-29T10:06:26;0.57;;;0.43;;
52868;SDS011;39100;53.480;6.158;2022-07-29T10:08:52;0.90;;;0.50;;
52868;SDS011;39100;53.480;6.158;2022-07-29T10:11:18;2.65;;;0.77;;
52868;SDS011;39100;53.480;6.158;2022-07-29T10:13:46;1.98;;;0.47;;
52868;SDS011;39100;53.480;6.158;2022-07-29T10:16:13;2.90;;;0.88;;
52868;SDS011;39100;53.480;6.158;2022-07-29T10:18:40;1.75;;;0.80;;
52868;SDS011;39100;53.480;6.158;2022-07-29T10:21:07;0.75;;;0.60;;
52868;SDS011;39100;53.480;6.158;2022-07-29T10:23:33;2.55;;;0.85;;
52868;SDS011;39100;53.480;6.158;2022-07-29T10:25:59;2.08;;;0.63;;
52868;SDS011;39100;53.480;6.158;2022-07-29T10:28:26;2.35;;;0.52;;
52868;SDS011;39100;53.480;6.158;2022-07-29T10:30:52;2.40;;;0.70;;
52868;SDS011;39100;53.480;6.158;2022-07-29T10:33:45;1.70;;;0.60;;
52868;SDS011;39100;53.480;6.158;2022-07-29T10:36:38;3.17;;;0.73;;
52868;SDS011;39100;53.480;6.158;2022-07-29T10:44:21;1.60;;;0.57;;
52868;SDS011;39100;53.480;6.158;2022-07-29T10:46:50;2.75;;;0.60;;
52868;SDS011;39100;53.480;6.158;2022-07-29T10:49:17;1.85;;;0.47;;
52868;SDS011;39100;53.480;6.158;2022-07-29T10:54:19;4.32;;;0.93;;
52868;SDS011;39100;53.480;6.158;2022-07-29T11:07:23;2.85;;;1.05;;
52868;SDS011;39100;53.480;6.158;2022-07-29T11:12:50;1.45;;;0.50;;
52868;SDS011;39100;53.480;6.158;2022-07-29T11:15:18;3.63;;;1.08;;
52868;SDS011;39100;53.480;6.158;2022-07-29T11:18:07;1.42;;;0.90;;
52868;SDS011;39100;53.480;6.158;2022-07-29T11:23:25;2.63;;;0.82;;
52868;SDS011;39100;53.480;6.158;2022-07-29T11:28:51;1.75;;;0.90;;
52868;SDS011;39100;53.480;6.158;2022-07-29T11:31:19;1.90;;;1.00;;
52868;SDS011;39100;53.480;6.158;2022-07-29T11:34:03;2.50;;;0.73;;
52868;SDS011;39100;53.480;6.158;2022-07-29T11:39:33;1.17;;;0.65;;
52868;SDS011;39100;53.480;6.158;2022-07-29T11:47:22;2.97;;;0.90;;
52868;SDS011;39100;53.480;6.158;2022-07-29T11:49:49;3.22;;;0.75;;
52868;SDS011;39100;53.480;6.158;2022-07-29T11:52:16;1.63;;;0.68;;
52868;SDS011;39100;53.480;6.158;2022-07-29T11:54:42;2.20;;;0.80;;
52868;SDS011;39100;53.480;6.158;2022-07-29T11:57:09;1.65;;;0.60;;
52868;SDS011;39100;53.480;6.158;2022-07-29T11:59:41;2.35;;;0.63;;
52868;SDS011;39100;53.480;6.158;2022-07-29T12:02:08;1.85;;;0.77;;
52868;SDS011;39100;53.480;6.158;2022-07-29T12:04:56;2.25;;;0.70;;
52868;SDS011;39100;53.480;6.158;2022-07-29T12:09:53;2.03;;;0.82;;
52868;SDS011;39100;53.480;6.158;2022-07-29T12:12:19;5.00;;;0.70;;
52868;SDS011;39100;53.480;6.158;2022-07-29T12:14:45;4.00;;;0.98;;
52868;SDS011;39100;53.480;6.158;2022-07-29T12:17:30;1.35;;;0.60;;
52868;SDS011;39100;53.480;6.158;2022-07-29T12:19:58;2.25;;;0.88;;
52868;SDS011;39100;53.480;6.158;2022-07-29T12:22:29;2.17;;;0.80;;
52868;SDS011;39100;53.480;6.158;2022-07-29T12:25:02;3.25;;;0.60;;
52868;SDS011;39100;53.480;6.158;2022-07-29T12:27:29;2.93;;;0.87;;
52868;SDS011;39100;53.480;6.158;2022-07-29T12:29:59;2.70;;;0.50;;
52868;SDS011;39100;53.480;6.158;2022-07-29T12:32:36;2.88;;;0.95;;
52868;SDS011;39100;53.480;6.158;2022-07-29T12:35:05;2.60;;;1.00;;
52868;SDS011;39100;53.480;6.158;2022-07-29T12:37:33;3.30;;;0.63;;
52868;SDS011;39100;53.480;6.158;2022-07-29T12:40:01;1.23;;;0.63;;
52868;SDS011;39100;53.480;6.158;2022-07-29T12:42:27;2.05;;;0.80;;
52868;SDS011;39100;53.480;6.158;2022-07-29T12:44:53;0.90;;;0.60;;
52868;SDS011;39100;53.480;6.158;2022-07-29T12:47:19;1.50;;;0.70;;
52868;SDS011;39100;53.480;6.158;2022-07-29T12:49:45;1.45;;;0.90;;
52868;SDS011;39100;53.480;6.158;2022-07-29T12:52:29;1.95;;;0.65;;
52868;SDS011;39100;53.480;6.158;2022-07-29T12:54:56;2.15;;;0.85;;
52868;SDS011;39100;53.480;6.158;2022-07-29T12:57:22;2.25;;;0.80;;
52868;SDS011;39100;53.480;6.158;2022-07-29T13:00:05;1.45;;;0.80;;
52868;SDS011;39100;53.480;6.158;2022-07-29T13:02:33;2.40;;;0.98;;
52868;SDS011;39100;53.480;6.158;2022-07-29T13:04:59;1.35;;;0.45;;
52868;SDS011;39100;53.480;6.158;2022-07-29T13:07:26;1.05;;;0.52;;
52868;SDS011;39100;53.480;6.158;2022-07-29T13:10:09;1.90;;;0.88;;
52868;SDS011;39100;53.480;6.158;2022-07-29T13:12:39;1.38;;;0.70;;
52868;SDS011;39100;53.480;6.158;2022-07-29T13:15:25;1.52;;;0.60;;
52868;SDS011;39100;53.480;6.158;2022-07-29T13:17:50;1.38;;;0.85;;
52868;SDS011;39100;53.480;6.158;2022-07-29T13:20:16;1.15;;;0.52;;
52868;SDS011;39100;53.480;6.158;2022-07-29T13:22:41;4.95;;;0.77;;
52868;SDS011;39100;53.480;6.158;2022-07-29T13:25:08;1.13;;;0.50;;
52868;SDS011;39100;53.480;6.158;2022-07-29T13:27:37;1.88;;;0.55;;
52868;SDS011;39100;53.480;6.158;2022-07-29T13:30:05;1.30;;;0.47;;
52868;SDS011;39100;53.480;6.158;2022-07-29T13:32:33;0.55;;;0.50;;
52868;SDS011;39100;53.480;6.158;2022-07-29T13:35:05;1.08;;;0.60;;
52868;SDS011;39100;53.480;6.158;2022-07-29T13:37:33;1.23;;;0.70;;
52868;SDS011;39100;53.480;6.158;2022-07-29T13:40:03;2.63;;;0.70;;
52868;SDS011;39100;53.480;6.158;2022-07-29T13:42:30;0.85;;;0.70;;
52868;SDS011;39100;53.480;6.158;2022-07-29T13:44:56;4.07;;;0.93;;
52868;SDS011;39100;53.480;6.158;2022-07-29T13:47:23;2.63;;;0.80;;
52868;SDS011;39100;53.480;6.158;2022-07-29T13:49:48;0.80;;;0.65;;
52868;SDS011;39100;53.480;6.158;2022-07-29T13:52:14;1.95;;;0.70;;
52868;SDS011;39100;53.480;6.158;2022-07-29T13:54:40;2.67;;;1.33;;
52868;SDS011;39100;53.480;6.158;2022-07-29T13:57:07;0.80;;;0.65;;
52868;SDS011;39100;53.480;6.158;2022-07-29T13:59:33;2.45;;;0.70;;
52868;SDS011;39100;53.480;6.158;2022-07-29T14:01:59;0.93;;;0.50;;
52868;SDS011;39100;53.480;6.158;2022-07-29T14:04:24;1.17;;;0.50;;
52868;SDS011;39100;53.480;6.158;2022-07-29T14:06:50;0.80;;;0.40;;
52868;SDS011;39100;53.480;6.158;2022-07-29T14:09:16;0.50;;;0.25;;
52868;SDS011;39100;53.480;6.158;2022-07-29T14:11:42;3.17;;;0.60;;
52868;SDS011;39100;53.480;6.158;2022-07-29T14:14:08;1.75;;;0.30;;
52868;SDS011;39100;53.480;6.158;2022-07-29T14:16:35;0.95;;;0.40;;
52868;SDS011;39100;53.480;6.158;2022-07-29T14:19:01;0.73;;;0.30;;
52868;SDS011;39100;53.480;6.158;2022-07-29T14:21:27;0.43;;;0.30;;
52868;SDS011;39100;53.480;6.158;2022-07-29T14:23:52;0.40;;;0.22;;
52868;SDS011;39100;53.480;6.158;2022-07-29T14:26:19;1.05;;;0.40;;
52868;SDS011;39100;53.480;6.158;2022-07-29T14:28:45;2.20;;;0.40;;
52868;SDS011;39100;53.480;6.158;2022-07-29T14:31:11;1.10;;;0.52;;
52868;SDS011;39100;53.480;6.158;2022-07-29T14:33:36;2.22;;;0.60;;
52868;SDS011;39100;53.480;6.158;2022-07-29T14:36:02;1.35;;;0.52;;
52868;SDS011;39100;53.480;6.158;2022-07-29T14:38:28;0.93;;;0.45;;
52868;SDS011;39100;53.480;6.158;2022-07-29T14:40:53;0.85;;;0.50;;
52868;SDS011;39100;53.480;6.158;2022-07-29T14:43:19;1.20;;;0.43;;
52868;SDS011;39100;53.480;6.158;2022-07-29T14:45:45;2.55;;;0.70;;
52868;SDS011;39100;53.480;6.158;2022-07-29T14:48:10;1.70;;;0.55;;
52868;SDS011;39100;53.480;6.158;2022-07-29T14:50:38;1.33;;;0.60;;
52868;SDS011;39100;53.480;6.158;2022-07-29T14:53:04;1.20;;;0.50;;
52868;SDS011;39100;53.480;6.158;2022-07-29T14:55:30;0.70;;;0.32;;
52868;SDS011;39100;53.480;6.158;2022-07-29T14:57:55;1.60;;;0.60;;
52868;SDS011;39100;53.480;6.158;2022-07-29T15:00:21;1.95;;;0.70;;
52868;SDS011;39100;53.480;6.158;2022-07-29T15:02:47;2.53;;;0.52;;
52868;SDS011;39100;53.480;6.158;2022-07-29T15:05:13;1.08;;;0.55;;
52868;SDS011;39100;53.480;6.158;2022-07-29T15:07:39;4.03;;;1.02;;
52868;SDS011;39100;53.480;6.158;2022-07-29T15:10:05;1.85;;;0.70;;
52868;SDS011;39100;53.480;6.158;2022-07-29T15:12:31;3.17;;;1.13;;
52868;SDS011;39100;53.480;6.158;2022-07-29T15:14:57;4.45;;;0.82;;
52868;SDS011;39100;53.480;6.158;2022-07-29T15:17:22;1.52;;;0.50;;
52868;SDS011;39100;53.480;6.158;2022-07-29T15:19:48;1.83;;;0.80;;
52868;SDS011;39100;53.480;6.158;2022-07-29T15:22:14;2.45;;;0.80;;
52868;SDS011;39100;53.480;6.158;2022-07-29T15:24:39;1.58;;;1.00;;
52868;SDS011;39100;53.480;6.158;2022-07-29T15:27:05;3.83;;;0.80;;
52868;SDS011;39100;53.480;6.158;2022-07-29T15:29:31;1.85;;;0.73;;
52868;SDS011;39100;53.480;6.158;2022-07-29T15:31:56;1.73;;;0.70;;
52868;SDS011;39100;53.480;6.158;2022-07-29T15:34:22;1.27;;;0.57;;
52868;SDS011;39100;53.480;6.158;2022-07-29T15:36:50;1.02;;;0.50;;
52868;SDS011;39100;53.480;6.158;2022-07-29T15:39:16;1.80;;;0.90;;
52868;SDS011;39100;53.480;6.158;2022-07-29T15:41:42;2.72;;;0.77;;
52868;SDS011;39100;53.480;6.158;2022-07-29T15:44:08;1.30;;;0.82;;
52868;SDS011;39100;53.480;6.158;2022-07-29T15:46:33;2.55;;;0.50;;
52868;SDS011;39100;53.480;6.158;2022-07-29T15:49:17;1.33;;;0.73;;
52868;SDS011;39100;53.480;6.158;2022-07-29T15:51:43;1.83;;;0.88;;
52868;SDS011;39100;53.480;6.158;2022-07-29T15:54:09;0.98;;;0.45;;